Time;durP1;ratioP1;P1;durP2;ratioP2;P2;SDS_P1;SDS_P2;PMS_P1;PMS_P2;Temp;Humidity;BMP_temperature;BMP_pressure;BME280_temperature;BME280_humidity;BME280_pressure;Samples;Min_cycle;Max_cycle;Signal;HPM_P1;HPM_P2
2021/06/29 00:01:05;;;;;;;;;1.00;1.00;;;;;25.61;44.25;101040.13;5062889;28;47955;-87
2021/06/29 00:03:31;;;;;;;;;2.00;1.00;;;;;25.59;44.77;101040.16;5079135;28;46001;-83
2021/06/29 00:05:56;;;;;;;;;1.00;1.00;;;;;25.55;44.30;101019.03;5061875;28;45392;-83
2021/06/29 00:08:22;;;;;;;;;1.00;1.00;;;;;25.58;45.01;101022.50;5079780;28;45405;-83
2021/06/29 00:10:48;;;;;;;;;1.50;1.00;;;;;25.59;44.68;101021.59;5077825;28;45419;-83
2021/06/29 00:13:15;;;;;;;;;1.00;1.00;;;;;25.59;44.83;101026.91;5079142;28;45327;-83
2021/06/29 00:15:41;;;;;;;;;0.75;0.75;;;;;25.64;44.29;101032.16;5078467;28;45269;-84
2021/06/29 00:18:07;;;;;;;;;1.00;1.00;;;;;25.59;44.41;101026.91;5081208;27;45196;-86
2021/06/29 00:20:33;;;;;;;;;0.25;0.00;;;;;25.63;44.80;101030.38;5083715;28;45306;-88
2021/06/29 00:22:59;;;;;;;;;1.50;1.50;;;;;25.63;45.13;101030.38;5086153;28;45435;-89
2021/06/29 00:25:25;;;;;;;;;0.25;0.25;;;;;25.60;44.56;101030.44;5082061;28;45527;-88
2021/06/29 00:27:51;;;;;;;;;0.25;0.25;;;;;25.60;45.28;101022.47;5062220;28;45466;-87
2021/06/29 00:30:17;;;;;;;;;1.00;1.00;;;;;25.59;45.18;101024.25;5079817;28;46099;-90
2021/06/29 00:32:44;;;;;;;;;0.00;0.00;;;;;25.60;45.33;101033.97;5061535;28;45426;-91
2021/06/29 00:35:10;;;;;;;;;1.00;1.00;;;;;25.58;45.14;101027.81;5081523;28;45472;-88
2021/06/29 00:37:36;;;;;;;;;1.00;1.00;;;;;25.58;45.08;101024.28;5080520;28;45326;-90
2021/06/29 00:40:07;;;;;;;;;1.00;0.00;;;;;25.60;45.15;101030.44;5060344;28;46701;-85
2021/06/29 00:42:34;;;;;;;;;0.25;0.25;;;;;25.55;45.33;101022.53;5077969;28;45334;-84
2021/06/29 00:44:59;;;;;;;;;2.00;1.00;;;;;25.60;44.57;101033.06;5066248;28;45421;-91
2021/06/29 00:47:25;;;;;;;;;1.00;1.00;;;;;25.53;45.13;101013.75;5079254;28;45334;-86
2021/06/29 00:49:50;;;;;;;;;0.75;0.75;;;;;25.58;45.28;101026.94;5079684;28;45695;-88
2021/06/29 00:52:17;;;;;;;;;1.00;1.00;;;;;25.59;44.63;101012.78;5078589;28;45252;-84
2021/06/29 00:54:44;;;;;;;;;1.00;1.00;;;;;25.56;44.64;101004.88;5061044;28;45300;-92
2021/06/29 00:57:12;;;;;;;;;2.00;1.00;;;;;25.53;45.31;100995.19;5060447;28;45236;-91
2021/06/29 00:59:39;;;;;;;;;1.00;1.00;;;;;25.50;45.04;100997.88;5064793;28;45908;-92
2021/06/29 01:02:07;;;;;;;;;0.25;0.25;;;;;25.54;44.52;101007.53;5084977;28;44970;-91
2021/06/29 01:04:33;;;;;;;;;2.00;2.00;;;;;25.58;44.67;101024.28;5065351;28;45360;-91
2021/06/29 01:06:59;;;;;;;;;0.25;0.25;;;;;25.57;44.67;101007.50;5079103;28;45385;-88
2021/06/29 01:09:25;;;;;;;;;1.00;0.00;;;;;25.52;45.31;101001.41;5078339;28;46257;-89
2021/06/29 01:11:51;;;;;;;;;1.75;1.00;;;;;25.55;45.33;101000.47;5078436;28;45671;-90
2021/06/29 01:14:17;;;;;;;;;1.00;0.50;;;;;25.49;44.46;100982.88;5080177;28;45403;-88
2021/06/29 01:16:44;;;;;;;;;1.00;1.00;;;;;25.52;44.66;100984.59;5079564;28;45322;-88
2021/06/29 01:19:18;;;;;;;;;2.00;0.25;;;;;25.54;45.03;100981.00;5064527;28;47781;-88
2021/06/29 01:21:46;;;;;;;;;2.00;2.00;;;;;25.52;45.22;100977.53;5088367;28;45593;-83
2021/06/29 01:24:17;;;;;;;;;1.00;1.00;;;;;25.47;45.00;100974.94;5085562;28;45228;-83
2021/06/29 01:26:58;;;;;;;;;1.50;1.50;;;;;25.43;45.39;100973.22;5084763;28;45302;-88
2021/06/29 01:29:37;;;;;;;;;1.25;1.25;;;;;25.52;44.90;100985.50;5085655;28;46217;-84
2021/06/29 01:32:03;;;;;;;;;1.25;0.25;;;;;25.49;45.09;100982.88;5087367;28;45806;-86
2021/06/29 01:34:29;;;;;;;;;0.75;0.75;;;;;25.52;44.61;101000.50;5085131;28;45455;-84
2021/06/29 01:36:54;;;;;;;;;1.50;1.50;;;;;25.47;44.76;100987.31;5084580;28;45418;-87
2021/06/29 01:39:20;;;;;;;;;1.00;1.00;;;;;25.52;44.74;100987.25;5085331;28;45386;-87
2021/06/29 01:41:46;;;;;;;;;1.00;1.00;;;;;25.43;45.39;100967.06;5084445;28;45311;-86
2021/06/29 01:44:17;;;;;;;;;1.00;1.00;;;;;25.48;44.75;100981.97;5084743;28;45589;-90
2021/06/29 01:46:46;;;;;;;;;1.25;1.00;;;;;25.45;44.89;100974.09;5067356;28;45316;-91
2021/06/29 01:49:11;;;;;;;;;1.00;0.00;;;;;25.43;45.39;100969.72;5086644;28;45486;-91
2021/06/29 01:51:37;;;;;;;;;2.25;2.25;;;;;25.39;44.61;100960.88;5085996;28;45184;-93
2021/06/29 01:54:02;;;;;;;;;1.00;1.00;;;;;25.43;44.86;100969.72;5087118;28;45349;-92
2021/06/29 01:56:32;;;;;;;;;1.25;1.25;;;;;25.43;45.16;100962.63;5067487;28;45232;-93
2021/06/29 01:59:01;;;;;;;;;1.25;1.25;;;;;25.46;44.77;100969.66;5084573;28;45658;-93
2021/06/29 02:01:27;;;;;;;;;2.00;2.00;;;;;25.46;44.65;100964.34;5066266;28;45529;-93
2021/06/29 02:03:53;;;;;;;;;2.00;2.00;;;;;25.43;44.76;100964.41;5083713;28;45154;-90
2021/06/29 02:06:19;;;;;;;;;1.50;1.00;;;;;25.41;45.37;100955.59;5085312;28;45541;-92
2021/06/29 02:08:45;;;;;;;;;0.75;0.75;;;;;25.39;44.99;100960.00;5085692;28;46375;-88
2021/06/29 02:11:11;;;;;;;;;1.00;1.00;;;;;25.42;45.24;100960.00;5086149;28;45405;-86
2021/06/29 02:13:38;;;;;;;;;1.00;1.00;;;;;25.43;45.40;100961.78;5081728;28;45448;-87
2021/06/29 02:16:04;;;;;;;;;1.00;1.00;;;;;25.43;45.33;100956.47;5085679;28;45685;-87
2021/06/29 02:18:29;;;;;;;;;3.00;1.00;;;;;25.44;45.00;100966.16;5088094;28;45538;-91
2021/06/29 02:20:55;;;;;;;;;1.00;1.00;;;;;25.32;45.40;100938.88;5088364;28;45263;-86
2021/06/29 02:23:22;;;;;;;;;1.00;1.00;;;;;25.41;45.51;100950.31;5086353;28;45246;-90
2021/06/29 02:25:48;;;;;;;;;1.50;1.50;;;;;25.35;44.68;100935.34;5086512;28;45350;-94
2021/06/29 02:28:13;;;;;;;;;1.00;1.00;;;;;25.35;45.42;100945.94;5081729;28;45354;-93
2021/06/29 02:30:41;;;;;;;;;0.25;0.25;;;;;25.42;45.40;100947.63;5081913;28;45251;-92
2021/06/29 02:33:07;;;;;;;;;1.00;1.00;;;;;25.33;45.18;100945.94;5081126;28;45323;-92
2021/06/29 02:35:33;;;;;;;;;3.00;1.00;;;;;25.33;45.31;100948.59;5081686;28;45383;-91
2021/06/29 02:37:59;;;;;;;;;1.75;1.75;;;;;25.41;45.03;100963.56;5080469;28;45367;-89
2021/06/29 02:40:25;;;;;;;;;1.00;1.00;;;;;25.37;44.94;100954.75;5079554;28;45348;-83
2021/06/29 02:42:51;;;;;;;;;1.00;1.00;;;;;25.37;45.55;100953.84;5080242;28;45474;-82
2021/06/29 02:45:20;;;;;;;;;1.00;1.00;;;;;25.38;45.21;100951.16;5081383;28;45641;-83
2021/06/29 02:47:47;;;;;;;;;1.75;1.75;;;;;25.38;45.23;100943.22;5082062;28;45561;-83
2021/06/29 02:50:14;;;;;;;;;2.00;1.25;;;;;25.40;45.48;100945.88;5089613;28;45658;-87
2021/06/29 02:52:40;;;;;;;;;1.00;1.00;;;;;25.30;44.98;100939.81;5088679;28;45440;-83
2021/06/29 02:55:11;;;;;;;;;0.00;0.00;;;;;25.31;45.48;100939.81;5073782;28;45351;-82
2021/06/29 02:57:37;;;;;;;;;1.00;1.00;;;;;25.39;45.64;100950.28;5089354;28;45552;-83
2021/06/29 03:00:06;;;;;;;;;1.50;1.50;;;;;25.37;45.52;100945.91;5085431;28;45330;-85
2021/06/29 03:02:31;;;;;;;;;1.50;1.50;;;;;25.35;45.24;100940.63;5079206;28;45466;-85
2021/06/29 03:04:57;;;;;;;;;1.75;1.75;;;;;25.37;45.23;100937.94;5079705;28;45636;-84
2021/06/29 03:07:23;;;;;;;;;1.00;1.00;;;;;25.27;45.03;100913.38;5085815;28;45832;-82
2021/06/29 03:09:48;;;;;;;;;3.00;2.25;;;;;25.31;45.07;100925.66;5082703;28;45379;-83
2021/06/29 03:12:14;;;;;;;;;1.25;1.00;;;;;25.35;44.87;100922.94;5078703;28;45280;-83
2021/06/29 03:14:41;;;;;;;;;1.00;1.00;;;;;25.33;45.52;100921.22;5078669;28;45557;-83
2021/06/29 03:17:07;;;;;;;;;1.00;1.00;;;;;25.31;45.00;100915.06;5077098;28;46389;-88
2021/06/29 03:19:36;;;;;;;;;1.50;1.50;;;;;25.26;45.14;100911.63;5077587;28;45415;-84
2021/06/29 03:22:03;;;;;;;;;2.00;1.00;;;;;25.31;45.46;100917.72;5078188;28;45564;-84
2021/06/29 03:24:29;;;;;;;;;2.00;2.00;;;;;25.28;45.11;100907.16;5064369;28;45534;-88
2021/06/29 03:26:56;;;;;;;;;3.00;1.25;;;;;25.29;45.54;100912.44;5081312;28;45684;-87
2021/06/29 03:29:22;;;;;;;;;1.00;1.00;;;;;25.31;45.61;100915.97;5077463;27;45437;-90
2021/06/29 03:31:47;;;;;;;;;0.50;0.25;;;;;25.31;45.60;100918.59;5083263;28;45391;-90
2021/06/29 03:34:14;;;;;;;;;1.00;0.00;;;;;25.24;45.25;100900.16;5084948;28;45488;-87
2021/06/29 03:36:41;;;;;;;;;1.25;1.25;;;;;25.24;45.42;100895.72;5083387;28;46157;-88
2021/06/29 03:39:08;;;;;;;;;1.25;1.25;;;;;25.28;45.61;100904.50;5083647;28;45693;-88
2021/06/29 03:41:34;;;;;;;;;3.00;2.00;;;;;25.25;45.43;100893.97;5076287;28;45337;-87
2021/06/29 03:44:00;;;;;;;;;1.00;1.00;;;;;25.26;45.63;100901.03;5060525;28;45244;-86
2021/06/29 03:46:26;;;;;;;;;2.00;1.00;;;;;25.29;44.84;100911.56;5079576;28;45555;-89
2021/06/29 03:48:52;;;;;;;;;1.00;1.00;;;;;25.28;45.48;100921.28;5079190;28;45466;-87
2021/06/29 03:51:17;;;;;;;;;2.00;1.75;;;;;25.24;45.65;100911.63;5078358;28;45303;-86
2021/06/29 03:53:43;;;;;;;;;1.25;1.00;;;;;25.25;45.43;100905.44;5080156;28;45455;-86
2021/06/29 03:56:24;;;;;;;;;0.25;0.25;;;;;25.22;44.90;100910.78;5080829;28;45465;-89
2021/06/29 03:58:51;;;;;;;;;1.75;1.75;;;;;25.23;45.62;100907.22;5063883;28;45247;-83
2021/06/29 04:01:17;;;;;;;;;0.75;0.75;;;;;25.28;45.16;100908.03;5080708;28;45522;-86
2021/06/29 04:03:43;;;;;;;;;2.00;0.75;;;;;25.26;45.27;100909.84;5080254;28;45322;-88
2021/06/29 04:06:09;;;;;;;;;1.00;1.00;;;;;25.19;45.12;100897.59;5080412;28;46128;-86
2021/06/29 04:08:34;;;;;;;;;2.00;1.00;;;;;25.26;44.93;100915.13;5060364;28;45494;-92
2021/06/29 04:11:00;;;;;;;;;1.25;1.25;;;;;25.24;45.64;100916.94;5083188;28;45370;-90
2021/06/29 04:13:26;;;;;;;;;1.00;1.00;;;;;25.23;45.56;100909.00;5086334;28;45305;-88
2021/06/29 04:15:51;;;;;;;;;2.25;2.25;;;;;25.25;45.08;100917.81;5086305;28;45413;-91
2021/06/29 04:18:17;;;;;;;;;0.50;0.50;;;;;25.26;45.57;100920.44;5085888;28;45344;-91
2021/06/29 04:20:43;;;;;;;;;1.00;1.00;;;;;25.21;45.45;100914.34;5084788;28;45429;-87
2021/06/29 04:23:09;;;;;;;;;2.00;2.00;;;;;25.25;45.14;100923.97;5083974;28;45292;-90
2021/06/29 04:25:35;;;;;;;;;2.75;2.25;;;;;25.25;45.45;100923.13;5088666;28;46255;-91
2021/06/29 04:28:00;;;;;;;;;1.00;1.00;;;;;25.25;44.89;100926.63;5084586;28;45177;-88
2021/06/29 04:30:26;;;;;;;;;1.00;0.00;;;;;25.22;45.10;100910.78;5086461;28;45257;-86
2021/06/29 04:32:52;;;;;;;;;1.00;1.00;;;;;25.25;44.97;100918.69;5090984;28;45268;-87
2021/06/29 04:35:17;;;;;;;;;1.75;1.75;;;;;25.22;45.52;100916.06;5082906;28;46188;-88
2021/06/29 04:37:43;;;;;;;;;2.25;2.00;;;;;25.23;45.15;100911.66;5077544;28;45421;-87
2021/06/29 04:40:09;;;;;;;;;1.75;1.75;;;;;25.23;45.51;100917.81;5079214;28;45426;-87
2021/06/29 04:42:35;;;;;;;;;0.00;0.00;;;;;25.23;45.63;100917.81;5077461;28;45328;-88
2021/06/29 04:45:01;;;;;;;;;1.00;1.00;;;;;25.23;45.30;100909.88;5077295;28;45485;-88
2021/06/29 04:47:27;;;;;;;;;2.00;2.00;;;;;25.22;44.96;100913.41;5076966;28;45608;-88
2021/06/29 04:49:55;;;;;;;;;1.00;1.00;;;;;25.21;45.58;100908.16;5080275;28;45322;-90
2021/06/29 04:52:21;;;;;;;;;1.00;1.00;;;;;25.23;45.44;100915.16;5085341;28;45446;-89
2021/06/29 04:54:47;;;;;;;;;1.00;1.00;;;;;25.23;45.11;100912.53;5070471;28;46807;-91
2021/06/29 04:57:12;;;;;;;;;1.25;1.00;;;;;25.23;45.18;100901.91;5083083;28;45442;-88
2021/06/29 04:59:38;;;;;;;;;0.75;0.75;;;;;25.18;45.45;100891.41;5080300;28;45380;-88
2021/06/29 05:02:04;;;;;;;;;1.00;1.00;;;;;25.23;44.84;100901.06;5081060;28;45393;-90
2021/06/29 05:04:29;;;;;;;;;1.00;1.00;;;;;25.20;44.98;100894.03;5079244;28;47457;-90
2021/06/29 05:06:55;;;;;;;;;0.25;0.25;;;;;25.16;45.39;100887.88;5079982;28;45415;-87
2021/06/29 05:09:21;;;;;;;;;1.50;1.50;;;;;25.22;45.13;100901.97;5062755;28;45447;-90
2021/06/29 05:11:46;;;;;;;;;1.50;1.50;;;;;25.18;45.11;100898.47;5061834;28;45213;-88
2021/06/29 05:14:12;;;;;;;;;0.00;0.00;;;;;25.19;44.79;100906.41;5079909;28;45758;-88
2021/06/29 05:16:38;;;;;;;;;1.25;1.25;;;;;25.15;45.19;100898.53;5080499;28;45259;-89
2021/06/29 05:19:04;;;;;;;;;1.00;1.00;;;;;25.18;45.10;100912.59;5079896;28;45738;-87
2021/06/29 05:21:30;;;;;;;;;1.50;1.00;;;;;25.21;44.98;100932.91;5080730;28;45483;-89
2021/06/29 05:23:55;;;;;;;;;2.00;2.00;;;;;25.22;45.23;100929.31;5080990;28;46261;-88
2021/06/29 05:26:21;;;;;;;;;12.00;11.50;;;;;25.22;45.45;100931.97;5080537;28;45455;-84
2021/06/29 05:28:47;;;;;;;;;17.75;15.50;;;;;25.22;44.72;100941.72;5079080;28;45454;-84
2021/06/29 05:31:12;;;;;;;;;27.50;24.00;;;;;25.21;44.82;100938.19;5081310;28;45330;-85
2021/06/29 05:33:38;;;;;;;;;48.00;38.25;;;;;25.23;44.88;100941.66;5078328;28;46040;-84
2021/06/29 05:36:04;;;;;;;;;35.00;32.25;;;;;25.21;44.98;100934.66;5078398;28;45408;-83
2021/06/29 05:38:30;;;;;;;;;48.75;38.75;;;;;25.19;44.73;100935.53;5078034;28;45481;-84
2021/06/29 05:40:55;;;;;;;;;52.25;41.00;;;;;25.19;44.24;100930.25;5078602;28;45797;-86
2021/06/29 05:43:21;;;;;;;;;48.75;38.50;;;;;25.22;45.06;100947.88;5079773;28;46069;-84
2021/06/29 05:45:47;;;;;;;;;44.75;38.25;;;;;25.24;44.53;100948.72;5078336;28;45355;-82
2021/06/29 05:48:14;;;;;;;;;43.00;35.75;;;;;25.23;44.41;100949.63;5060188;28;45346;-82
2021/06/29 05:50:39;;;;;;;;;46.50;36.75;;;;;25.26;44.55;100956.69;5078573;28;45270;-82
2021/06/29 05:53:05;;;;;;;;;42.50;36.00;;;;;25.25;44.50;100954.91;5077654;28;46240;-83
2021/06/29 05:55:30;;;;;;;;;13.50;9.50;;;;;25.20;43.53;100957.63;5066536;28;45206;-88
2021/06/29 05:57:56;;;;;;;;;9.50;7.25;;;;;25.14;43.80;100961.25;5081025;28;45385;-80
2021/06/29 06:00:22;;;;;;;;;27.50;26.00;;;;;25.05;43.71;100966.66;5079017;28;45457;-82
2021/06/29 06:02:47;;;;;;;;;30.25;25.75;;;;;24.97;44.00;100958.81;5078582;28;45907;-79
2021/06/29 06:05:13;;;;;;;;;25.25;20.00;;;;;24.98;45.04;100963.22;5083368;28;45397;-89
2021/06/29 06:07:42;;;;;;;;;25.50;22.00;;;;;24.99;45.37;100967.63;5080611;27;45425;-81
2021/06/29 06:10:08;;;;;;;;;26.00;20.50;;;;;24.98;44.88;100963.22;5066701;28;45617;-87
2021/06/29 06:12:34;;;;;;;;;12.00;12.00;;;;;25.01;45.17;100971.09;5080414;28;45402;-81
2021/06/29 06:15:00;;;;;;;;;13.25;12.25;;;;;25.00;45.28;100971.13;5060763;28;45394;-88
2021/06/29 06:17:27;;;;;;;;;18.00;16.00;;;;;25.02;46.32;100974.66;5073157;28;45466;-83
2021/06/29 06:19:53;;;;;;;;;11.25;11.25;;;;;25.04;45.74;100976.38;5077226;28;45501;-82
2021/06/29 06:22:20;;;;;;;;;15.00;13.50;;;;;24.96;44.62;100972.06;5078019;28;46315;-78
2021/06/29 06:24:45;;;;;;;;;10.75;10.00;;;;;24.93;45.40;100983.56;5081259;28;45708;-82
2021/06/29 06:27:14;;;;;;;;;27.00;23.75;;;;;24.87;45.47;100984.53;5078835;28;45361;-89
2021/06/29 06:29:40;;;;;;;;;45.00;35.00;;;;;24.82;45.04;100985.47;5078332;28;45177;-84
2021/06/29 06:32:10;;;;;;;;;21.25;19.50;;;;;24.82;44.90;100977.53;5078174;28;45412;-86
2021/06/29 06:34:35;;;;;;;;;18.25;16.00;;;;;24.86;44.58;100987.19;5064487;28;45522;-84
2021/06/29 06:37:07;;;;;;;;;12.75;11.75;;;;;24.88;45.04;100985.41;5080013;28;45379;-86
2021/06/29 06:39:32;;;;;;;;;12.25;10.50;;;;;24.87;45.19;100987.16;5076901;28;45493;-87
2021/06/29 06:41:58;;;;;;;;;7.50;6.00;;;;;24.89;44.72;100981.84;5079619;28;45359;-79
2021/06/29 06:44:24;;;;;;;;;6.00;4.50;;;;;24.91;44.35;100982.72;5077439;28;45375;-79
2021/06/29 06:46:50;;;;;;;;;6.50;5.00;;;;;24.93;44.57;100986.22;5079922;28;45409;-80
2021/06/29 06:49:16;;;;;;;;;6.75;4.75;;;;;24.91;44.67;100982.72;5080257;28;45306;-81
2021/06/29 06:51:42;;;;;;;;;6.25;5.00;;;;;24.93;44.64;100978.28;5082842;28;46376;-89
2021/06/29 06:54:08;;;;;;;;;3.50;3.50;;;;;24.94;44.43;100973.88;5067954;28;45287;-90
2021/06/29 06:56:34;;;;;;;;;3.50;3.00;;;;;24.90;44.99;100959.75;5069845;28;44646;-91
2021/06/29 06:58:59;;;;;;;;;3.00;3.00;;;;;24.96;44.57;100972.94;5088308;28;45191;-87
2021/06/29 07:01:25;;;;;;;;;3.00;3.00;;;;;24.93;45.00;100959.75;5073428;28;46704;-88
2021/06/29 07:03:51;;;;;;;;;2.50;2.00;;;;;24.93;44.52;100962.38;5077903;28;44801;-86
2021/06/29 07:06:16;;;;;;;;;3.00;3.00;;;;;24.99;44.89;100972.91;5093647;28;45340;-87
2021/06/29 07:08:43;;;;;;;;;5.25;2.50;;;;;25.01;44.75;100981.69;5094070;28;45237;-88
2021/06/29 07:11:08;;;;;;;;;4.25;3.00;;;;;24.98;45.42;100963.22;5086615;28;47536;-87
2021/06/29 07:13:35;;;;;;;;;3.00;3.00;;;;;25.02;44.87;100972.00;5090344;28;45502;-90
2021/06/29 07:16:01;;;;;;;;;2.25;2.25;;;;;25.05;44.81;100979.91;5088371;28;45307;-92
2021/06/29 07:18:27;;;;;;;;;3.25;3.00;;;;;25.05;44.65;100985.22;5092173;28;44979;-95
2021/06/29 07:20:53;;;;;;;;;4.75;2.50;;;;;25.01;44.93;100971.09;5071584;28;46980;-94
2021/06/29 07:23:19;;;;;;;;;3.75;3.00;;;;;24.99;44.78;100966.72;5076410;27;45392;-80
2021/06/29 07:25:45;;;;;;;;;5.00;3.00;;;;;25.06;46.02;100984.28;5081088;28;45314;-84
2021/06/29 07:28:12;;;;;;;;;3.25;3.25;;;;;25.10;45.91;100990.44;5083447;28;45449;-82
2021/06/29 07:30:39;;;;;;;;;3.25;2.25;;;;;25.08;46.36;100987.81;5079648;28;46069;-84
2021/06/29 07:33:05;;;;;;;;;1.25;1.25;;;;;25.10;45.22;101001.06;5079007;28;45833;-81
2021/06/29 07:35:31;;;;;;;;;2.75;2.00;;;;;25.01;44.75;101008.19;5077458;28;45279;-82
2021/06/29 07:37:59;;;;;;;;;45.75;36.25;;;;;24.93;44.91;101002.13;5077022;28;45544;-81
2021/06/29 07:40:26;;;;;;;;;26.00;23.50;;;;;24.80;44.95;101000.50;5063428;28;46509;-83
2021/06/29 07:42:54;;;;;;;;;11.50;11.00;;;;;24.72;45.66;101005.91;5077238;28;45818;-83
2021/06/29 07:45:20;;;;;;;;;7.00;6.50;;;;;24.64;45.56;101000.66;5078611;28;45450;-82
2021/06/29 07:47:45;;;;;;;;;4.25;4.25;;;;;24.53;46.00;101003.41;5077302;28;45303;-82
2021/06/29 07:50:11;;;;;;;;;5.50;4.00;;;;;24.48;45.84;101007.88;5078234;28;46356;-92
2021/06/29 07:52:37;;;;;;;;;4.75;4.25;;;;;24.39;46.25;101005.31;5082327;28;45673;-89
2021/06/29 07:55:04;;;;;;;;;1.25;1.25;;;;;24.27;46.46;100991.31;5080217;28;45336;-86
2021/06/29 07:57:30;;;;;;;;;2.25;2.25;;;;;24.21;46.69;101001.06;5060369;28;45598;-83
2021/06/29 07:59:56;;;;;;;;;2.25;2.25;;;;;24.17;47.07;100997.59;5058447;28;45501;-85
2021/06/29 08:02:21;;;;;;;;;3.00;3.00;;;;;24.11;46.64;100998.50;5077558;28;45434;-82
2021/06/29 08:04:48;;;;;;;;;3.50;3.25;;;;;24.03;47.18;101000.31;5077909;28;45415;-84
2021/06/29 08:07:14;;;;;;;;;5.25;5.00;;;;;23.97;48.13;101004.81;5079396;28;45298;-82
2021/06/29 08:09:42;;;;;;;;;4.25;3.50;;;;;23.89;48.47;101005.69;5080047;28;46416;-84
2021/06/29 08:12:08;;;;;;;;;1.00;1.00;;;;;23.80;48.05;101009.31;5062007;28;45699;-86
2021/06/29 08:14:36;;;;;;;;;3.00;3.00;;;;;23.71;48.52;101000.53;5062755;28;45336;-86
2021/06/29 08:17:03;;;;;;;;;3.50;3.25;;;;;23.67;48.61;101004.09;5076901;28;45616;-85
2021/06/29 08:19:28;;;;;;;;;3.75;3.75;;;;;23.63;49.62;101012.06;5077988;28;46209;-85
2021/06/29 08:21:55;;;;;;;;;3.00;2.00;;;;;23.57;49.38;101011.22;5060706;28;45376;-85
2021/06/29 08:24:21;;;;;;;;;1.00;1.00;;;;;23.45;48.82;101004.22;5081053;28;45297;-90
2021/06/29 08:26:47;;;;;;;;;2.00;2.00;;;;;23.33;49.01;101008.69;5060664;28;45568;-84
2021/06/29 08:29:12;;;;;;;;;1.00;1.00;;;;;23.25;49.11;101005.19;5084859;28;45578;-85
2021/06/29 08:31:38;;;;;;;;;2.00;2.00;;;;;23.29;49.48;101016.63;5069961;28;45357;-88
2021/06/29 08:34:05;;;;;;;;;3.25;2.25;;;;;23.25;50.00;101009.63;5068378;28;45334;-82
2021/06/29 08:36:41;;;;;;;;;2.00;2.00;;;;;23.19;49.29;101014.03;5084201;28;45307;-88
2021/06/29 08:39:07;;;;;;;;;2.50;2.50;;;;;23.11;49.86;101022.84;5084312;28;45627;-91
2021/06/29 08:41:33;;;;;;;;;12.75;11.00;;;;;23.06;49.45;101016.69;5084748;28;45343;-86
2021/06/29 08:43:59;;;;;;;;;7.00;7.00;;;;;22.98;49.66;101014.09;5066529;28;45384;-91
2021/06/29 08:46:25;;;;;;;;;5.00;3.75;;;;;22.96;49.60;101019.38;5087975;28;45375;-86
2021/06/29 08:48:51;;;;;;;;;17.50;16.00;;;;;22.94;50.01;101017.63;5068480;28;46926;-86
2021/06/29 08:51:17;;;;;;;;;11.50;11.50;;;;;22.95;49.81;101011.44;5088192;28;45227;-86
2021/06/29 08:53:43;;;;;;;;;7.00;6.75;;;;;22.95;50.03;101012.34;5084498;28;45221;-82
2021/06/29 08:56:15;;;;;;;;;4.00;4.00;;;;;22.92;49.76;101009.69;5081338;28;45279;-82
2021/06/29 08:58:40;;;;;;;;;2.75;2.75;;;;;22.93;49.39;101021.16;5080654;28;46320;-87
2021/06/29 09:01:06;;;;;;;;;15.75;15.25;;;;;22.90;49.47;101010.59;5084295;28;45411;-87
2021/06/29 09:03:32;;;;;;;;;4.75;4.75;;;;;22.87;49.83;101012.34;5083367;28;45391;-91
2021/06/29 09:05:57;;;;;;;;;2.00;2.00;;;;;22.91;48.96;101018.50;5083511;28;45342;-82
2021/06/29 09:08:25;;;;;;;;;2.75;2.00;;;;;22.94;49.38;101007.06;5079748;28;45373;-85
2021/06/29 09:11:19;;;;;;;;;4.00;4.00;;;;;22.95;50.07;101014.09;5063988;28;45268;-84
2021/06/29 09:14:07;;;;;;;;;4.00;3.50;;;;;22.93;49.55;101018.50;5081223;28;45276;-80
2021/06/29 09:16:33;;;;;;;;;3.25;2.00;;;;;22.90;49.40;101015.88;5080234;28;45371;-87
2021/06/29 09:18:58;;;;;;;;;4.00;4.00;;;;;22.86;48.87;101017.66;5079633;28;46700;-84
2021/06/29 09:21:25;;;;;;;;;4.50;4.00;;;;;22.78;49.00;101012.38;5081306;28;45412;-86
2021/06/29 09:23:52;;;;;;;;;35.50;30.75;;;;;22.74;49.55;101018.53;5083855;28;45379;-84
2021/06/29 09:26:20;;;;;;;;;5.50;4.25;;;;;22.67;49.10;101015.06;5066860;28;45438;-84
2021/06/29 09:28:53;;;;;;;;;5.00;4.75;;;;;22.66;49.53;101008.03;5081395;28;47793;-84
2021/06/29 09:31:22;;;;;;;;;2.75;2.00;;;;;22.65;49.26;101014.19;5084022;28;45620;-83
2021/06/29 09:33:55;;;;;;;;;5.00;3.50;;;;;22.64;48.44;101017.69;5081569;28;45379;-88
2021/06/29 09:36:23;;;;;;;;;2.75;2.75;;;;;22.56;47.61;101006.28;5066926;28;45476;-88
2021/06/29 09:38:52;;;;;;;;;2.00;1.00;;;;;22.44;47.74;101001.03;5090428;28;45503;-89
2021/06/29 09:41:30;;;;;;;;;2.25;2.25;;;;;22.41;47.33;101008.06;5079974;28;45693;-79
2021/06/29 09:44:03;;;;;;;;;0.00;0.00;;;;;22.35;47.06;101005.38;5078963;28;45255;-83
2021/06/29 09:46:29;;;;;;;;;1.75;1.75;;;;;22.35;46.70;101004.50;5079372;28;45215;-79
2021/06/29 09:48:59;;;;;;;;;0.50;0.50;;;;;22.40;46.72;101010.69;5077538;28;47321;-80
2021/06/29 09:51:31;;;;;;;;;2.75;2.00;;;;;22.44;46.83;101007.16;5078561;28;45828;-79
2021/06/29 09:54:03;;;;;;;;;14.75;11.50;;;;;22.49;47.17;101015.06;5079362;28;45439;-79
2021/06/29 09:56:44;;;;;;;;;12.50;10.00;;;;;22.52;47.24;101012.44;5079144;28;45315;-81
2021/06/29 09:59:14;;;;;;;;;35.75;27.75;;;;;22.57;46.84;101006.28;5078991;28;45381;-83
2021/06/29 10:01:41;;;;;;;;;11.75;11.25;;;;;22.61;47.10;101014.19;5078853;28;45182;-82
2021/06/29 10:04:07;;;;;;;;;17.00;16.25;;;;;22.65;47.03;101002.72;5080779;28;45290;-80
2021/06/29 10:06:35;;;;;;;;;11.75;10.00;;;;;22.72;46.96;101012.41;5063023;28;45221;-80
2021/06/29 10:09:10;;;;;;;;;7.25;5.50;;;;;22.74;46.23;101000.06;5078816;28;46101;-82
2021/06/29 10:11:42;;;;;;;;;4.25;3.00;;;;;22.83;46.13;101007.97;5077818;28;45403;-82
2021/06/29 10:14:09;;;;;;;;;1.00;1.00;;;;;22.87;45.38;101015.00;5078325;28;45331;-82
2021/06/29 10:16:48;;;;;;;;;1.00;1.00;;;;;22.93;44.64;101013.22;5078611;28;45583;-79
2021/06/29 10:21:59;;;;;;;;;2.00;1.00;;;;;22.95;43.64;101006.16;5080818;28;45452;-83
2021/06/29 10:24:28;;;;;;;;;3.00;1.00;;;;;22.99;44.06;101014.09;5079647;28;45260;-80
2021/06/29 10:26:56;;;;;;;;;0.75;0.50;;;;;23.21;43.70;101021.06;5061363;28;45718;-81
2021/06/29 10:29:23;;;;;;;;;1.00;1.00;;;;;23.36;42.65;101012.19;5059866;28;47640;-82
2021/06/29 10:31:52;;;;;;;;;1.75;1.00;;;;;23.33;42.46;101010.44;5079264;28;45257;-81
2021/06/29 10:34:18;;;;;;;;;2.00;1.00;;;;;23.28;42.46;101015.75;5078681;28;45338;-89
2021/06/29 10:36:49;;;;;;;;;1.00;0.75;;;;;23.31;42.65;101018.41;5060061;28;45720;-89
2021/06/29 10:39:18;;;;;;;;;3.50;3.50;;;;;23.33;42.97;101018.38;5078692;28;45579;-86
2021/06/29 10:42:06;;;;;;;;;1.75;1.75;;;;;23.29;42.89;101020.16;5077195;28;45728;-82
2021/06/29 10:44:38;;;;;;;;;1.00;1.00;;;;;23.22;43.09;101010.47;5059112;28;45252;-85
2021/06/29 10:47:19;;;;;;;;;1.25;1.25;;;;;23.18;43.05;101009.59;5078068;28;45534;-86
2021/06/29 10:49:46;;;;;;;;;0.00;0.00;;;;;23.21;42.96;101013.16;5058930;28;48039;-79
2021/06/29 10:52:27;;;;;;;;;1.00;1.00;;;;;23.19;42.76;101005.25;5076029;28;45818;-81
2021/06/29 10:54:53;;;;;;;;;1.00;1.00;;;;;23.15;43.13;101008.72;5077787;28;45283;-83
2021/06/29 10:57:23;;;;;;;;;0.50;0.50;;;;;23.16;43.22;100997.28;5078512;28;45346;-82
2021/06/29 10:59:55;;;;;;;;;1.75;1.25;;;;;23.25;43.69;100992.00;5077806;28;46588;-82
2021/06/29 11:02:35;;;;;;;;;0.25;0.25;;;;;23.34;42.95;100994.56;5077848;28;45675;-83
2021/06/29 11:05:03;;;;;;;;;1.00;1.00;;;;;23.36;42.94;100998.97;5077439;28;45469;-81
2021/06/29 11:07:31;;;;;;;;;16.25;16.25;;;;;23.36;42.79;100998.97;5077660;28;45387;-81
2021/06/29 11:10:03;;;;;;;;;6.00;6.00;;;;;23.34;43.29;100994.56;5077492;28;46211;-82
2021/06/29 11:12:35;;;;;;;;;2.25;2.25;;;;;23.34;43.46;100996.34;5077313;28;45723;-82
2021/06/29 11:15:05;;;;;;;;;3.00;2.00;;;;;23.35;43.33;101003.41;5077075;27;45374;-83
2021/06/29 11:17:54;;;;;;;;;2.00;2.00;;;;;23.33;42.62;101000.75;5075690;27;45339;-83
2021/06/29 11:20:38;;;;;;;;;5.00;3.25;;;;;23.32;42.59;101003.41;5077040;28;45560;-83
2021/06/29 11:23:16;;;;;;;;;1.50;1.00;;;;;23.32;43.15;100996.34;5076542;28;45789;-81
2021/06/29 11:25:56;;;;;;;;;2.00;2.00;;;;;23.33;43.92;100995.47;5076655;28;45461;-80